createdAt,value
2023-12-31T00:03:43.436Z,100171.25
2023-12-31T00:06:18.993Z,100153.31
2023-12-31T00:08:51.840Z,100136.84
2023-12-31T00:11:24.525Z,100144.09
2023-12-31T00:14:01.084Z,100116.75
2023-12-31T00:16:36.630Z,100127.91
2023-12-31T00:19:09.487Z,100115.50
2023-12-31T00:21:43.674Z,100126.78
2023-12-31T00:24:16.338Z,100125.03
2023-12-31T00:26:48.942Z,100113.13
2023-12-31T00:29:26.964Z,100107.25
2023-12-31T00:32:08.580Z,100081.75
2023-12-31T00:37:41.219Z,100087.16
2023-12-31T00:40:14.179Z,100084.09
2023-12-31T00:42:47.067Z,100073.69
2023-12-31T00:45:19.712Z,100048.00
2023-12-31T00:47:52.625Z,100052.31
2023-12-31T00:50:25.316Z,100062.25
2023-12-31T00:52:57.963Z,100060.25
2023-12-31T00:55:30.658Z,100033.22
2023-12-31T00:58:03.529Z,100043.47
2023-12-31T01:00:36.160Z,100033.00
2023-12-31T01:03:14.770Z,100032.47
2023-12-31T01:06:05.391Z,100037.38
2023-12-31T01:08:47.245Z,100029.44
2023-12-31T01:11:19.906Z,100017.47
2023-12-31T01:13:53.014Z,100035.09
2023-12-31T01:16:31.604Z,100024.13
2023-12-31T01:19:13.373Z,100001.25
2023-12-31T01:21:51.998Z,100005.31
2023-12-31T01:24:33.864Z,99997.28
2023-12-31T01:27:18.590Z,100000.56
2023-12-31T01:30:00.137Z,99972.28
2023-12-31T01:32:35.609Z,99989.13
2023-12-31T01:35:20.515Z,99997.06
2023-12-31T01:37:53.275Z,99969.78
2023-12-31T01:43:33.555Z,99984.66
2023-12-31T01:46:09.565Z,99982.53
2023-12-31T01:48:42.438Z,99954.81
2023-12-31T01:51:15.080Z,99944.81
2023-12-31T01:53:48.088Z,99947.69
2023-12-31T01:56:21.621Z,99943.88
2023-12-31T01:58:54.887Z,99944.41
2023-12-31T02:01:32.185Z,99953.84
2023-12-31T02:04:21.386Z,99927.88
2023-12-31T02:06:54.311Z,99928.63
2023-12-31T02:09:32.996Z,99923.31
2023-12-31T02:12:07.828Z,99917.72
2023-12-31T02:14:40.543Z,99935.31
2023-12-31T02:17:16.421Z,99909.56
2023-12-31T02:19:49.256Z,99905.78
2023-12-31T02:22:22.550Z,99921.84
2023-12-31T02:25:16.637Z,99911.19
2023-12-31T02:27:49.408Z,99888.56
2023-12-31T02:30:24.008Z,99887.81
2023-12-31T02:32:56.826Z,99888.09
2023-12-31T02:35:29.609Z,99867.47
2023-12-31T02:38:02.443Z,99867.28
2023-12-31T02:40:35.138Z,99871.88
2023-12-31T02:43:33.675Z,99858.50
2023-12-31T02:46:06.536Z,99829.41
2023-12-31T02:48:39.317Z,99844.47
2023-12-31T02:51:12.075Z,99813.94
2023-12-31T02:53:53.644Z,99820.59
2023-12-31T02:56:42.791Z,99824.72
2023-12-31T03:02:10.889Z,99796.22
2023-12-31T03:04:46.768Z,99806.91
2023-12-31T03:07:25.342Z,99803.31
2023-12-31T03:10:04.237Z,99789.59
2023-12-31T03:12:48.963Z,99793.47
2023-12-31T03:15:33.920Z,99775.69
2023-12-31T03:18:18.695Z,99761.97
2023-12-31T03:23:51.652Z,99749.00
2023-12-31T03:26:24.872Z,99750.34
2023-12-31T03:28:57.575Z,99735.09
2023-12-31T03:31:33.047Z,99740.94
2023-12-31T03:34:14.725Z,99709.97
2023-12-31T03:36:50.230Z,99718.91
2023-12-31T03:39:35.312Z,99697.56
2023-12-31T03:42:33.130Z,99711.34
2023-12-31T03:45:06.366Z,99686.13
2023-12-31T03:47:39.131Z,99682.16
2023-12-31T03:50:12.737Z,99662.28
2023-12-31T03:52:45.815Z,99682.38
2023-12-31T03:55:18.679Z,99660.78
2023-12-31T03:57:51.340Z,99665.16
2023-12-31T04:00:29.992Z,99649.16
2023-12-31T04:03:14.835Z,99645.06
2023-12-31T04:05:50.668Z,99639.00
2023-12-31T04:08:23.422Z,99621.75
2023-12-31T04:10:56.105Z,99630.38
2023-12-31T04:13:44.254Z,99635.47
2023-12-31T04:16:26.073Z,99618.19
2023-12-31T04:19:07.901Z,99605.78
2023-12-31T04:21:46.501Z,99593.34
2023-12-31T04:24:25.022Z,99583.19
2023-12-31T04:27:06.569Z,99589.81
2023-12-31T04:29:42.035Z,99590.31
2023-12-31T04:32:26.414Z,99587.81
2023-12-31T04:35:06.450Z,99573.81
2023-12-31T04:37:48.105Z,99578.16
2023-12-31T04:40:23.779Z,99576.59
2023-12-31T04:43:21.310Z,99580.22
2023-12-31T04:45:53.909Z,99557.09
2023-12-31T04:48:32.622Z,99576.91
2023-12-31T04:51:11.392Z,99566.22
2023-12-31T04:53:54.909Z,99558.38
2023-12-31T04:56:28.543Z,99555.84
2023-12-31T04:59:01.771Z,99545.44
2023-12-31T05:01:34.510Z,99553.31
2023-12-31T05:04:16.485Z,99546.72
2023-12-31T05:06:51.897Z,99532.75
2023-12-31T05:09:24.635Z,99508.16
2023-12-31T05:11:57.411Z,99513.72
2023-12-31T05:14:33.112Z,99507.66
2023-12-31T05:17:05.761Z,99505.59
2023-12-31T05:19:38.377Z,99506.91
2023-12-31T05:22:11.040Z,99512.50
2023-12-31T05:24:43.695Z,99481.78
2023-12-31T05:27:16.510Z,99482.53
2023-12-31T05:29:49.674Z,99491.97
2023-12-31T05:32:22.377Z,99477.50
2023-12-31T05:34:55.107Z,99477.22
2023-12-31T05:37:27.808Z,99466.13
2023-12-31T05:40:00.631Z,99436.69
2023-12-31T05:42:33.357Z,99446.84
2023-12-31T05:45:15.190Z,99445.31
2023-12-31T05:47:48.315Z,99453.44
2023-12-31T05:50:21.595Z,99450.38
2023-12-31T05:52:54.509Z,99433.63
2023-12-31T05:55:27.140Z,99424.28
2023-12-31T05:57:59.967Z,99423.22
2023-12-31T06:00:41.679Z,99420.75
2023-12-31T06:03:14.441Z,99430.34
2023-12-31T06:05:47.196Z,99421.50
2023-12-31T06:08:19.945Z,99418.19
2023-12-31T06:10:55.963Z,99423.75
2023-12-31T06:13:37.765Z,99401.47
2023-12-31T06:16:22.917Z,99394.88
2023-12-31T06:19:07.582Z,99400.47
2023-12-31T06:21:49.373Z,99410.38
2023-12-31T06:24:34.415Z,99393.88
2023-12-31T06:27:19.126Z,99409.59
2023-12-31T06:30:00.747Z,99382.75
2023-12-31T06:32:34.709Z,99387.56
2023-12-31T06:35:08.629Z,99377.91
2023-12-31T06:37:41.763Z,99395.41
2023-12-31T06:40:15.045Z,99383.00
2023-12-31T06:43:13.241Z,99378.19
2023-12-31T06:45:45.936Z,99342.69
2023-12-31T06:48:21.783Z,99353.34
2023-12-31T06:50:54.965Z,99333.31
2023-12-31T06:53:30.522Z,99332.78
2023-12-31T06:56:10.106Z,99349.78
2023-12-31T06:58:43.118Z,99327.97
2023-12-31T07:01:15.924Z,99338.84
2023-12-31T07:03:54.846Z,99328.72
2023-12-31T07:06:30.410Z,99334.53
2023-12-31T07:09:09.200Z,99319.31
2023-12-31T07:11:48.231Z,99309.41
2023-12-31T07:14:22.216Z,99312.41
2023-12-31T07:16:55.387Z,99316.94
2023-12-31T07:19:40.251Z,99298.44
2023-12-31T07:22:25.976Z,99298.63
2023-12-31T07:25:01.329Z,99303.97
2023-12-31T07:27:46.233Z,99296.59
2023-12-31T07:30:19.436Z,99289.00
2023-12-31T07:33:13.330Z,99274.25
2023-12-31T07:35:52.181Z,99285.34
2023-12-31T07:38:33.820Z,99272.19
2023-12-31T07:41:15.766Z,99294.97
2023-12-31T07:44:13.335Z,99283.97
2023-12-31T07:46:54.988Z,99282.25
2023-12-31T07:49:39.863Z,99262.75
2023-12-31T07:52:26.334Z,99281.72
2023-12-31T07:54:59.968Z,99277.16
2023-12-31T07:57:32.760Z,99254.13
2023-12-31T08:00:07.012Z,99267.50
2023-12-31T08:02:39.917Z,99249.78
2023-12-31T08:05:24.976Z,99265.44
2023-12-31T08:08:23.730Z,99280.13
2023-12-31T08:10:56.625Z,99253.06
2023-12-31T08:13:36.208Z,99251.31
2023-12-31T08:16:18.129Z,99238.34
2023-12-31T08:18:53.132Z,99238.34
2023-12-31T08:21:39.055Z,99261.91
2023-12-31T08:24:11.649Z,99260.38
2023-12-31T08:26:44.335Z,99241.91
2023-12-31T08:29:17.000Z,99239.84
2023-12-31T08:31:54.022Z,99253.78
2023-12-31T08:34:27.176Z,99239.09
2023-12-31T08:37:08.379Z,99256.25
2023-12-31T08:39:48.403Z,99232.69
2023-12-31T08:42:30.108Z,99255.78
2023-12-31T08:48:11.731Z,99260.03
2023-12-31T08:51:02.050Z,99247.91
2023-12-31T08:53:49.451Z,99256.81
2023-12-31T08:56:22.099Z,99242.84
2023-12-31T08:58:54.826Z,99254.50
2023-12-31T09:01:36.876Z,99257.75
2023-12-31T09:04:24.677Z,99252.16
2023-12-31T09:07:12.012Z,99257.75
2023-12-31T09:09:44.746Z,99281.09
2023-12-31T09:12:21.356Z,99271.97
2023-12-31T09:15:03.935Z,99276.81
2023-12-31T09:17:42.623Z,99293.25
2023-12-31T09:20:27.640Z,99287.72
2023-12-31T09:23:11.733Z,99296.34
2023-12-31T09:25:47.699Z,99301.94
2023-12-31T09:28:20.671Z,99295.28
2023-12-31T09:31:02.576Z,99294.28
2023-12-31T09:33:39.725Z,99294.81
2023-12-31T09:36:21.495Z,99275.31
2023-12-31T09:39:05.728Z,99288.47
2023-12-31T09:41:39.486Z,99294.53
2023-12-31T09:44:17.262Z,99307.75
2023-12-31T09:47:16.182Z,99292.50
2023-12-31T09:52:51.749Z,99301.88
2023-12-31T09:55:26.853Z,99320.47
2023-12-31T09:58:04.762Z,99313.06
2023-12-31T10:00:37.545Z,99320.16
2023-12-31T10:03:14.774Z,99317.91
2023-12-31T10:05:53.248Z,99311.81
2023-12-31T10:08:31.036Z,99314.63
2023-12-31T10:11:08.087Z,99311.78
2023-12-31T10:13:40.912Z,99302.66
2023-12-31T10:16:36.111Z,99314.03
2023-12-31T10:19:08.974Z,99309.47
2023-12-31T10:21:43.211Z,99310.50
2023-12-31T10:24:15.833Z,99320.72
2023-12-31T10:27:02.203Z,99297.31
2023-12-31T10:29:44.395Z,99290.44
2023-12-31T10:32:32.505Z,99309.69
2023-12-31T10:35:15.611Z,99318.56
2023-12-31T10:38:06.170Z,99300.81
2023-12-31T10:40:39.041Z,99302.13
2023-12-31T10:43:17.292Z,99292.50
2023-12-31T10:45:54.842Z,99299.81
2023-12-31T10:51:25.126Z,99299.03
2023-12-31T10:54:48.479Z,99331.22
2023-12-31T10:57:41.821Z,99309.13
2023-12-31T11:00:16.940Z,99318.84
2023-12-31T11:03:05.511Z,99314.69
2023-12-31T11:05:49.589Z,99317.06
2023-12-31T11:08:47.733Z,99327.84
2023-12-31T11:11:21.490Z,99307.88
2023-12-31T11:13:58.922Z,99290.13
2023-12-31T11:16:54.534Z,99309.84
2023-12-31T11:19:54.665Z,99300.63
2023-12-31T11:22:55.513Z,99299.91
2023-12-31T11:26:10.587Z,99314.03
2023-12-31T11:28:51.128Z,99311.63
2023-12-31T11:31:25.512Z,99314.13
2023-12-31T11:34:10.833Z,99299.72
2023-12-31T11:37:09.967Z,99330.81
2023-12-31T11:39:53.976Z,99313.66
2023-12-31T11:42:27.062Z,99313.47
2023-12-31T11:45:03.018Z,99332.72
2023-12-31T11:47:41.842Z,99318.56
2023-12-31T11:50:25.589Z,99324.66
2023-12-31T11:52:59.102Z,99332.72
2023-12-31T11:55:38.002Z,99332.94
2023-12-31T11:58:18.776Z,99342.66
2023-12-31T12:00:51.759Z,99335.84
2023-12-31T12:03:27.863Z,99330.50
2023-12-31T12:06:00.957Z,99323.69
2023-12-31T12:08:34.399Z,99326.72
2023-12-31T12:11:10.588Z,99332.53
2023-12-31T12:13:57.827Z,99329.03
2023-12-31T12:16:45.788Z,99339.69
2023-12-31T12:19:18.446Z,99328.25
2023-12-31T12:21:58.758Z,99343.97
2023-12-31T12:24:31.782Z,99343.97
2023-12-31T12:27:13.653Z,99340.38
2023-12-31T12:29:46.669Z,99334.84
2023-12-31T12:32:19.755Z,99323.44
2023-12-31T12:34:52.700Z,99333.59
2023-12-31T12:40:20.834Z,99341.69
2023-12-31T12:42:54.579Z,99334.88
2023-12-31T12:45:27.387Z,99345.47
2023-12-31T12:48:03.736Z,99347.84
2023-12-31T12:50:46.410Z,99347.34
2023-12-31T12:53:19.092Z,99357.72
2023-12-31T12:55:51.763Z,99357.97
2023-12-31T12:58:24.611Z,99341.56
2023-12-31T13:01:06.616Z,99343.56
2023-12-31T13:03:53.329Z,99363.13
2023-12-31T13:09:12.783Z,99362.63
2023-12-31T13:11:57.373Z,99365.09
2023-12-31T13:14:45.767Z,99363.13
2023-12-31T13:17:19.685Z,99358.81
2023-12-31T13:19:55.770Z,99340.81
2023-12-31T13:22:28.665Z,99339.53
2023-12-31T13:25:01.336Z,99348.41
2023-12-31T13:27:33.958Z,99362.63
2023-12-31T13:30:07.751Z,99348.16
2023-12-31T13:32:40.487Z,99354.22
2023-12-31T13:35:19.703Z,99363.13
2023-12-31T13:37:52.394Z,99350.47
2023-12-31T13:40:27.981Z,99336.81
2023-12-31T13:43:16.882Z,99345.66
2023-12-31T13:45:49.552Z,99361.63
2023-12-31T13:48:22.457Z,99349.94
2023-12-31T13:50:55.225Z,99339.84
2023-12-31T13:53:31.808Z,99357.34
2023-12-31T13:56:05.594Z,99349.47
2023-12-31T13:58:38.324Z,99309.16
2023-12-31T14:01:20.106Z,99337.28
2023-12-31T14:04:11.150Z,99332.75
2023-12-31T14:06:45.625Z,99337.09
2023-12-31T14:09:29.040Z,99355.34
2023-12-31T14:12:01.996Z,99356.13
2023-12-31T14:14:34.669Z,99344.97
2023-12-31T14:17:10.780Z,99347.00
2023-12-31T14:19:43.824Z,99335.13
2023-12-31T14:22:16.859Z,99347.28
2023-12-31T14:24:52.791Z,99349.84
2023-12-31T14:27:37.974Z,99337.16
2023-12-31T14:30:11.573Z,99341.22
2023-12-31T14:32:45.348Z,99331.88
2023-12-31T14:35:27.558Z,99343.50
2023-12-31T14:38:09.831Z,99333.38
2023-12-31T14:40:51.836Z,99332.38
2023-12-31T14:43:24.618Z,99354.94
2023-12-31T14:45:59.827Z,99346.38
2023-12-31T14:48:38.331Z,99329.59
2023-12-31T14:51:17.099Z,99329.91
2023-12-31T14:53:50.110Z,99338.47
2023-12-31T14:56:22.976Z,99343.81
2023-12-31T14:59:10.801Z,99337.97
2023-12-31T15:01:52.895Z,99351.16
2023-12-31T15:04:26.453Z,99344.31
2023-12-31T15:06:59.206Z,99347.34
2023-12-31T15:09:31.909Z,99350.16
2023-12-31T15:12:05.160Z,99352.44
2023-12-31T15:14:38.338Z,99334.19
2023-12-31T15:17:11.198Z,99341.81
2023-12-31T15:19:43.821Z,99330.69
2023-12-31T15:22:22.503Z,99343.06
2023-12-31T15:24:55.117Z,99333.44
2023-12-31T15:27:36.192Z,99332.44
2023-12-31T15:30:38.108Z,99347.34
2023-12-31T15:33:19.833Z,99356.03
2023-12-31T15:35:53.102Z,99357.03
2023-12-31T15:38:26.205Z,99345.16
2023-12-31T15:41:07.833Z,99344.34
2023-12-31T15:43:47.044Z,99338.53
2023-12-31T15:46:20.053Z,99355.28
2023-12-31T15:49:03.199Z,99340.78
2023-12-31T15:51:44.921Z,99335.19
2023-12-31T15:54:17.605Z,99352.41
2023-12-31T15:56:59.424Z,99339.72
2023-12-31T16:03:34.449Z,99331.81
2023-12-31T16:06:09.223Z,99348.78
2023-12-31T16:08:48.180Z,99352.06
2023-12-31T16:11:33.505Z,99349.53
2023-12-31T16:16:52.791Z,99339.91
2023-12-31T16:19:34.629Z,99364.72
2023-12-31T16:22:07.637Z,99345.66
2023-12-31T16:24:52.523Z,99369.50
2023-12-31T16:27:37.757Z,99338.59
2023-12-31T16:30:15.686Z,99359.41
2023-12-31T16:33:00.986Z,99353.25
2023-12-31T16:35:39.735Z,99342.38
2023-12-31T16:38:28.827Z,99347.41
2023-12-31T16:41:13.777Z,99351.94
2023-12-31T16:43:56.156Z,99343.31
2023-12-31T16:49:15.556Z,99341.59
2023-12-31T16:51:51.046Z,99343.13
2023-12-31T16:54:35.086Z,99349.19
2023-12-31T16:57:07.854Z,99337.28
2023-12-31T16:59:52.761Z,99352.25
2023-12-31T17:02:25.449Z,99326.91
2023-12-31T17:04:58.221Z,99340.09
2023-12-31T17:07:31.177Z,99348.97
2023-12-31T17:10:13.627Z,99338.59
2023-12-31T17:12:58.874Z,99354.50
2023-12-31T17:15:32.936Z,99347.66
2023-12-31T17:20:52.720Z,99350.28
2023-12-31T17:23:26.719Z,99359.94
2023-12-31T17:26:03.260Z,99334.81
2023-12-31T17:28:36.018Z,99337.88
2023-12-31T17:31:08.727Z,99353.59
2023-12-31T17:33:41.489Z,99353.13
2023-12-31T17:36:17.430Z,99366.28
2023-12-31T17:38:59.169Z,99350.34
2023-12-31T17:41:43.892Z,99363.00
2023-12-31T17:44:16.635Z,99363.50
2023-12-31T17:46:49.430Z,99353.94
2023-12-31T17:49:22.293Z,99368.09
2023-12-31T17:51:55.010Z,99358.97
2023-12-31T17:54:27.714Z,99364.34
2023-12-31T17:57:00.406Z,99367.09
2023-12-31T17:59:33.000Z,99381.31
2023-12-31T18:02:05.700Z,99369.94
2023-12-31T18:04:38.809Z,99382.63
2023-12-31T18:07:11.796Z,99376.28
2023-12-31T18:09:56.363Z,99385.66
2023-12-31T18:12:28.958Z,99395.81
2023-12-31T18:15:02.454Z,99401.41
2023-12-31T18:17:35.293Z,99403.97
2023-12-31T18:20:09.962Z,99409.56
2023-12-31T18:22:44.030Z,99406.50
2023-12-31T18:25:16.865Z,99397.28
2023-12-31T18:27:49.510Z,99399.63
2023-12-31T18:30:46.896Z,99388.75
2023-12-31T18:33:26.498Z,99384.19
2023-12-31T18:36:05.314Z,99404.25
2023-12-31T18:38:51.620Z,99382.69
2023-12-31T18:41:39.593Z,99369.25
2023-12-31T18:44:13.946Z,99392.56
2023-12-31T18:46:46.780Z,99399.41
2023-12-31T18:49:19.511Z,99390.53
2023-12-31T18:51:54.231Z,99398.94
2023-12-31T18:54:32.887Z,99406.28
2023-12-31T18:57:06.693Z,99383.47
2023-12-31T19:02:26.272Z,99381.94
2023-12-31T19:04:59.155Z,99390.31
2023-12-31T19:07:31.939Z,99408.09
2023-12-31T19:10:11.401Z,99390.84
2023-12-31T19:12:44.147Z,99393.41
2023-12-31T19:15:18.997Z,99404.28
2023-12-31T19:20:38.264Z,99398.44
2023-12-31T19:23:10.998Z,99412.91
2023-12-31T19:25:43.714Z,99420.03
2023-12-31T19:28:19.676Z,99403.78
2023-12-31T19:30:52.477Z,99417.75
2023-12-31T19:33:25.589Z,99415.72
2023-12-31T19:35:58.528Z,99424.59
2023-12-31T19:38:31.867Z,99426.13
2023-12-31T19:41:05.179Z,99441.88
2023-12-31T19:44:13.776Z,99440.34
2023-12-31T19:46:48.193Z,99446.44
2023-12-31T19:49:20.950Z,99460.91
2023-12-31T19:51:54.079Z,99458.09
2023-12-31T19:54:26.675Z,99458.88
2023-12-31T19:57:02.871Z,99468.75
2023-12-31T19:59:56.656Z,99460.13
2023-12-31T20:02:32.995Z,99451.28
2023-12-31T20:05:15.088Z,99451.75
2023-12-31T20:07:54.240Z,99448.47
2023-12-31T20:10:33.327Z,99444.91
2023-12-31T20:13:10.034Z,99454.31
2023-12-31T20:15:57.741Z,99454.31
2023-12-31T20:18:31.266Z,99463.44
2023-12-31T20:21:04.260Z,99470.28
2023-12-31T20:23:37.148Z,99469.28
2023-12-31T20:26:11.008Z,99482.97
2023-12-31T20:28:43.973Z,99475.63
2023-12-31T20:31:31.764Z,99481.69
2023-12-31T20:34:04.876Z,99459.09
2023-12-31T20:36:37.527Z,99484.75
2023-12-31T20:39:10.309Z,99478.88
2023-12-31T20:41:49.030Z,99489.56
2023-12-31T20:44:30.669Z,99496.19
2023-12-31T20:47:03.810Z,99498.72
2023-12-31T20:49:41.192Z,99480.91
2023-12-31T20:52:20.422Z,99478.13
2023-12-31T20:54:59.345Z,99494.66
2023-12-31T20:57:32.318Z,99490.59
2023-12-31T21:00:21.983Z,99505.81
2023-12-31T21:03:45.604Z,99518.75
2023-12-31T21:06:18.412Z,99512.91
2023-12-31T21:08:54.209Z,99519.78
2023-12-31T21:11:39.953Z,99511.38
2023-12-31T21:14:25.245Z,99496.94
2023-12-31T21:17:16.442Z,99506.81
2023-12-31T21:19:54.908Z,99498.94
2023-12-31T21:22:33.978Z,99512.13
2023-12-31T21:25:23.295Z,99516.94
2023-12-31T21:28:10.430Z,99523.53
2023-12-31T21:30:55.630Z,99519.50
2023-12-31T21:33:40.365Z,99511.34
2023-12-31T21:36:13.159Z,99509.59
2023-12-31T21:38:47.025Z,99513.91
2023-12-31T21:41:30.149Z,99523.00
2023-12-31T21:44:13.669Z,99533.44
2023-12-31T21:46:53.183Z,99518.97
2023-12-31T21:49:35.091Z,99514.63
2023-12-31T21:52:07.721Z,99503.97
2023-12-31T21:54:40.867Z,99516.41
2023-12-31T21:57:24.499Z,99501.44
2023-12-31T22:00:02.803Z,99513.13
2023-12-31T22:02:41.382Z,99496.63
2023-12-31T22:05:40.421Z,99512.84
2023-12-31T22:08:13.283Z,99506.78
2023-12-31T22:10:45.988Z,99524.78
2023-12-31T22:13:19.944Z,99527.09
2023-12-31T22:15:52.693Z,99531.63
2023-12-31T22:18:25.604Z,99526.84
2023-12-31T22:20:58.380Z,99528.09
2023-12-31T22:23:37.141Z,99541.06
2023-12-31T22:26:10.006Z,99538.78
2023-12-31T22:28:42.752Z,99528.13
2023-12-31T22:31:19.838Z,99542.59
2023-12-31T22:33:52.587Z,99544.63
2023-12-31T22:36:25.394Z,99538.28
2023-12-31T22:38:58.009Z,99547.16
2023-12-31T22:41:30.761Z,99549.19
2023-12-31T22:44:03.650Z,99533.19
2023-12-31T22:46:42.466Z,99543.13
2023-12-31T22:49:15.130Z,99546.16
2023-12-31T22:51:47.725Z,99565.47
2023-12-31T22:54:20.299Z,99558.09
2023-12-31T22:56:52.940Z,99554.28
2023-12-31T23:02:22.165Z,99566.22
2023-12-31T23:04:55.127Z,99564.94
2023-12-31T23:07:28.035Z,99574.63
2023-12-31T23:10:01.023Z,99583.00
2023-12-31T23:12:39.926Z,99572.81
2023-12-31T23:15:26.135Z,99564.19
2023-12-31T23:18:05.244Z,99548.97
2023-12-31T23:20:58.404Z,99560.88
2023-12-31T23:26:32.984Z,99558.63
2023-12-31T23:29:06.411Z,99566.72
2023-12-31T23:31:39.185Z,99545.66
2023-12-31T23:34:12.196Z,99568.53
2023-12-31T23:37:05.632Z,99546.41
2023-12-31T23:39:48.603Z,99561.13
2023-12-31T23:42:36.009Z,99560.13
2023-12-31T23:45:26.837Z,99548.47
2023-12-31T23:48:02.686Z,99568.75
2023-12-31T23:50:35.700Z,99546.16
2023-12-31T23:53:14.167Z,99575.88
2023-12-31T23:55:47.323Z,99574.34
2023-12-31T23:58:20.479Z,99568.22
